CSN2318 ZGGG-ZUCK
Flight info
| Callsign | CSN2318 |
|---|---|
| Flight time | N/A |
| Altitude | 32100 |
| Route | AGVIL W24 OSNOV G586 QP B330 ELKAL W179 SUMUN W3 ASIPO W678 SEGDA |
| Aircraft | A320/M-SDE3GHIJ2J3J5M1RVWXYZ/LB2D1 |
Departure
| Time | 2026-05-05 01:44 |
|---|---|
| Airport | Guangzhou Baiyun International Airport (ZGGG) |
Arrival
| Time | N/A |
|---|---|
| Airport | Chongqing Jiangbei International Airport (ZUCK) |
| Time | Latitude | Longitude | Altitude | Speed | Heading |
|---|---|---|---|---|---|
| 2026-05-05 00:55 | 23.40087 | 113.30682 | 44 ft | 0 kts | 333° |
| 2026-05-05 01:27 | 23.40083 | 113.30684 | 44 ft | 2 kts | 334° |
| 2026-05-05 01:28 | 23.40070 | 113.30691 | 44 ft | 2 kts | 333° |
| 2026-05-05 01:28 | 23.40056 | 113.30698 | 44 ft | 2 kts | 334° |
| 2026-05-05 01:28 | 23.40043 | 113.30705 | 44 ft | 2 kts | 333° |
| 2026-05-05 01:28 | 23.40030 | 113.30712 | 44 ft | 2 kts | 334° |
| 2026-05-05 01:29 | 23.40016 | 113.30720 | 44 ft | 2 kts | 333° |
| 2026-05-05 01:29 | 23.40003 | 113.30727 | 44 ft | 2 kts | 334° |
| 2026-05-05 01:29 | 23.39990 | 113.30733 | 44 ft | 2 kts | 333° |
| 2026-05-05 01:29 | 23.39976 | 113.30741 | 43 ft | 2 kts | 334° |
| 2026-05-05 01:30 | 23.39963 | 113.30748 | 43 ft | 2 kts | 333° |
| 2026-05-05 01:30 | 23.39949 | 113.30756 | 43 ft | 2 kts | 333° |
| 2026-05-05 01:30 | 23.39939 | 113.30761 | 43 ft | 0 kts | 333° |
| 2026-05-05 01:30 | 23.39935 | 113.30763 | 43 ft | 0 kts | 294° |
| 2026-05-05 01:31 | 23.39934 | 113.30768 | 43 ft | 0 kts | 244° |
| 2026-05-05 01:31 | 23.39937 | 113.30772 | 43 ft | 0 kts | 200° |
| 2026-05-05 01:31 | 23.39942 | 113.30773 | 43 ft | 1 kts | 188° |
| 2026-05-05 01:31 | 23.39945 | 113.30773 | 43 ft | 0 kts | 191° |
| 2026-05-05 01:33 | 23.39934 | 113.30771 | 43 ft | 6 kts | 193° |
| 2026-05-05 01:33 | 23.39870 | 113.30753 | 42 ft | 10 kts | 194° |
| 2026-05-05 01:34 | 23.39793 | 113.30732 | 42 ft | 12 kts | 194° |
| 2026-05-05 01:34 | 23.39697 | 113.30706 | 42 ft | 15 kts | 194° |
| 2026-05-05 01:34 | 23.39586 | 113.30675 | 41 ft | 17 kts | 194° |
| 2026-05-05 01:34 | 23.39461 | 113.30642 | 39 ft | 18 kts | 194° |
| 2026-05-05 01:35 | 23.39334 | 113.30607 | 39 ft | 19 kts | 194° |
| 2026-05-05 01:35 | 23.39205 | 113.30572 | 39 ft | 19 kts | 194° |
| 2026-05-05 01:35 | 23.39074 | 113.30536 | 39 ft | 19 kts | 193° |
| 2026-05-05 01:35 | 23.38942 | 113.30502 | 39 ft | 19 kts | 193° |
| 2026-05-05 01:36 | 23.38810 | 113.30466 | 39 ft | 19 kts | 194° |
| 2026-05-05 01:36 | 23.38676 | 113.30429 | 38 ft | 20 kts | 193° |
| 2026-05-05 01:36 | 23.38535 | 113.30390 | 36 ft | 21 kts | 194° |
| 2026-05-05 01:36 | 23.38389 | 113.30351 | 36 ft | 21 kts | 193° |
| 2026-05-05 01:37 | 23.38244 | 113.30313 | 36 ft | 21 kts | 193° |
| 2026-05-05 01:37 | 23.38101 | 113.30273 | 36 ft | 21 kts | 192° |
| 2026-05-05 01:37 | 23.37960 | 113.30235 | 36 ft | 21 kts | 194° |
| 2026-05-05 01:37 | 23.37872 | 113.30209 | 36 ft | 5 kts | 212° |
| 2026-05-05 01:38 | 23.37865 | 113.30166 | 36 ft | 7 kts | 282° |
| 2026-05-05 01:38 | 23.37884 | 113.30084 | 36 ft | 13 kts | 284° |
| 2026-05-05 01:38 | 23.37911 | 113.29967 | 38 ft | 18 kts | 284° |
| 2026-05-05 01:38 | 23.37946 | 113.29816 | 37 ft | 22 kts | 284° |
| 2026-05-05 01:39 | 23.37987 | 113.29636 | 36 ft | 26 kts | 284° |
| 2026-05-05 01:39 | 23.38035 | 113.29431 | 35 ft | 29 kts | 284° |
| 2026-05-05 01:39 | 23.38087 | 113.29215 | 33 ft | 29 kts | 282° |
| 2026-05-05 01:39 | 23.38131 | 113.29007 | 33 ft | 27 kts | 284° |
| 2026-05-05 01:40 | 23.38165 | 113.28865 | 33 ft | 15 kts | 284° |
| 2026-05-05 01:40 | 23.38192 | 113.28749 | 33 ft | 14 kts | 284° |
| 2026-05-05 01:40 | 23.38189 | 113.28685 | 32 ft | 6 kts | 234° |
| 2026-05-05 01:40 | 23.38140 | 113.28661 | 33 ft | 8 kts | 193° |
| 2026-05-05 01:41 | 23.38075 | 113.28644 | 33 ft | 10 kts | 193° |
| 2026-05-05 01:41 | 23.37991 | 113.28621 | 32 ft | 14 kts | 194° |
| 2026-05-05 01:41 | 23.37880 | 113.28591 | 33 ft | 16 kts | 194° |
| 2026-05-05 01:41 | 23.37765 | 113.28561 | 33 ft | 16 kts | 193° |
| 2026-05-05 01:42 | 23.37689 | 113.28539 | 33 ft | 8 kts | 204° |
| 2026-05-05 01:42 | 23.37672 | 113.28499 | 33 ft | 6 kts | 279° |
| 2026-05-05 01:42 | 23.37683 | 113.28445 | 32 ft | 7 kts | 283° |
| 2026-05-05 01:42 | 23.37697 | 113.28384 | 32 ft | 6 kts | 284° |
| 2026-05-05 01:43 | 23.37711 | 113.28362 | 32 ft | 3 kts | 332° |
| 2026-05-05 01:43 | 23.37743 | 113.28364 | 32 ft | 5 kts | 11° |
| 2026-05-05 01:43 | 23.37830 | 113.28387 | 33 ft | 38 kts | 14° |
| 2026-05-05 01:43 | 23.38328 | 113.28522 | 33 ft | 106 kts | 14° |
| 2026-05-05 01:44 | 23.39235 | 113.28767 | 36 ft | 161 kts | 14° |
| 2026-05-05 01:44 | 23.40468 | 113.29102 | 245 ft | 189 kts | 14° |
| 2026-05-05 01:44 | 23.41775 | 113.29378 | 872 ft | 192 kts | 13° |
| 2026-05-05 01:44 | 23.42968 | 113.29855 | 1790 ft | 181 kts | 26° |
| 2026-05-05 01:45 | 23.44164 | 113.30262 | 2356 ft | 191 kts | 1° |
| 2026-05-05 01:45 | 23.45510 | 113.29894 | 2771 ft | 205 kts | 336° |
| 2026-05-05 01:45 | 23.46847 | 113.29190 | 3145 ft | 223 kts | 333° |
| 2026-05-05 01:45 | 23.48317 | 113.28428 | 3482 ft | 245 kts | 335° |
| 2026-05-05 01:46 | 23.49910 | 113.27678 | 4179 ft | 251 kts | 336° |
| 2026-05-05 01:46 | 23.51514 | 113.26971 | 5005 ft | 252 kts | 336° |
| 2026-05-05 01:46 | 23.53166 | 113.26300 | 5826 ft | 255 kts | 339° |
| 2026-05-05 01:46 | 23.54895 | 113.25733 | 6443 ft | 267 kts | 340° |
| 2026-05-05 01:47 | 23.56712 | 113.25161 | 6996 ft | 280 kts | 340° |
| 2026-05-05 01:47 | 23.58558 | 113.24430 | 7756 ft | 281 kts | 327° |
| 2026-05-05 01:47 | 23.60088 | 113.23178 | 8592 ft | 277 kts | 310° |
| 2026-05-05 01:47 | 23.61367 | 113.21643 | 9411 ft | 277 kts | 307° |
| 2026-05-05 01:48 | 23.62632 | 113.20054 | 10205 ft | 280 kts | 307° |
| 2026-05-05 01:48 | 23.63922 | 113.18435 | 10795 ft | 290 kts | 307° |
| 2026-05-05 01:48 | 23.65296 | 113.16718 | 11157 ft | 308 kts | 307° |
| 2026-05-05 01:48 | 23.66751 | 113.14915 | 11476 ft | 326 kts | 308° |
| 2026-05-05 01:49 | 23.68296 | 113.13006 | 11776 ft | 343 kts | 308° |
| 2026-05-05 01:49 | 23.69904 | 113.11023 | 12181 ft | 356 kts | 308° |
| 2026-05-05 01:49 | 23.71521 | 113.08989 | 12823 ft | 359 kts | 306° |
| 2026-05-05 01:49 | 23.73024 | 113.06811 | 13517 ft | 359 kts | 301° |
| 2026-05-05 01:50 | 23.74342 | 113.04534 | 14156 ft | 360 kts | 297° |
| 2026-05-05 01:50 | 23.75562 | 113.02145 | 14770 ft | 363 kts | 296° |
| 2026-05-05 01:50 | 23.76959 | 112.99798 | 15351 ft | 370 kts | 307° |
| 2026-05-05 01:50 | 23.78919 | 112.97953 | 15819 ft | 384 kts | 323° |
| 2026-05-05 01:51 | 23.81397 | 112.96736 | 16328 ft | 397 kts | 336° |
| 2026-05-05 01:51 | 23.84053 | 112.95857 | 16876 ft | 400 kts | 339° |
| 2026-05-05 01:51 | 23.86726 | 112.94990 | 17396 ft | 404 kts | 339° |
| 2026-05-05 01:51 | 23.89452 | 112.94102 | 17910 ft | 407 kts | 338° |
| 2026-05-05 01:52 | 23.92140 | 112.93214 | 18402 ft | 409 kts | 338° |
| 2026-05-05 01:52 | 23.94871 | 112.92309 | 18925 ft | 411 kts | 338° |
| 2026-05-05 01:52 | 23.97641 | 112.91389 | 19439 ft | 413 kts | 338° |
| 2026-05-05 01:52 | 24.00386 | 112.90477 | 19923 ft | 415 kts | 337° |
| 2026-05-05 01:53 | 24.03174 | 112.89550 | 20390 ft | 417 kts | 337° |
| 2026-05-05 01:53 | 24.05941 | 112.88631 | 20850 ft | 419 kts | 337° |
| 2026-05-05 01:53 | 24.08750 | 112.87697 | 21310 ft | 421 kts | 337° |
| 2026-05-05 01:53 | 24.11539 | 112.86770 | 21747 ft | 423 kts | 337° |
| 2026-05-05 01:54 | 24.14367 | 112.85834 | 22188 ft | 424 kts | 337° |
| 2026-05-05 01:54 | 24.17216 | 112.84890 | 22622 ft | 426 kts | 337° |
| 2026-05-05 01:54 | 24.20041 | 112.83954 | 23040 ft | 428 kts | 337° |
| 2026-05-05 01:54 | 24.22916 | 112.83000 | 23450 ft | 429 kts | 336° |
| 2026-05-05 01:55 | 24.25785 | 112.82047 | 23877 ft | 431 kts | 336° |
| 2026-05-05 01:55 | 24.28632 | 112.81100 | 24279 ft | 432 kts | 336° |
| 2026-05-05 01:55 | 24.31534 | 112.80133 | 24682 ft | 434 kts | 336° |
| 2026-05-05 01:55 | 24.34420 | 112.79171 | 25038 ft | 436 kts | 336° |
| 2026-05-05 01:56 | 24.37320 | 112.78204 | 25373 ft | 439 kts | 336° |
| 2026-05-05 01:56 | 24.40260 | 112.77223 | 25724 ft | 441 kts | 336° |
| 2026-05-05 01:56 | 24.43184 | 112.76170 | 26068 ft | 437 kts | 330° |
| 2026-05-05 01:56 | 24.45741 | 112.74458 | 26377 ft | 425 kts | 314° |
| 2026-05-05 01:57 | 24.47703 | 112.72120 | 26742 ft | 416 kts | 301° |
| 2026-05-05 01:57 | 24.49047 | 112.69347 | 27021 ft | 412 kts | 288° |
| 2026-05-05 01:57 | 24.49707 | 112.66293 | 27331 ft | 411 kts | 277° |
| 2026-05-05 01:57 | 24.50017 | 112.63174 | 27760 ft | 410 kts | 276° |
| 2026-05-05 01:58 | 24.50332 | 112.60106 | 28151 ft | 409 kts | 276° |
| 2026-05-05 01:58 | 24.50648 | 112.57001 | 28527 ft | 408 kts | 277° |
| 2026-05-05 01:58 | 24.50955 | 112.53940 | 28927 ft | 406 kts | 277° |
| 2026-05-05 01:58 | 24.51263 | 112.50857 | 29350 ft | 404 kts | 276° |
| 2026-05-05 01:59 | 24.51562 | 112.47819 | 29732 ft | 402 kts | 276° |
| 2026-05-05 01:59 | 24.51860 | 112.44775 | 30094 ft | 401 kts | 276° |
| 2026-05-05 01:59 | 24.52155 | 112.41738 | 30447 ft | 399 kts | 276° |
| 2026-05-05 01:59 | 24.52447 | 112.38717 | 30739 ft | 399 kts | 276° |
| 2026-05-05 02:00 | 24.52737 | 112.35701 | 30992 ft | 400 kts | 277° |
| 2026-05-05 02:00 | 24.53029 | 112.32660 | 31256 ft | 401 kts | 276° |
| 2026-05-05 02:00 | 24.53320 | 112.29620 | 31546 ft | 400 kts | 276° |
| 2026-05-05 02:00 | 24.53609 | 112.26588 | 31812 ft | 400 kts | 276° |
| 2026-05-05 02:01 | 24.53894 | 112.23575 | 32047 ft | 401 kts | 276° |
| 2026-05-05 02:01 | 24.54186 | 112.20502 | 32141 ft | 402 kts | 276° |
| 2026-05-05 02:01 | 24.54765 | 112.14407 | 32155 ft | 403 kts | 276° |
| 2026-05-05 02:02 | 24.55341 | 112.08328 | 32163 ft | 403 kts | 276° |
| 2026-05-05 02:02 | 24.55917 | 112.02190 | 32168 ft | 403 kts | 276° |
| 2026-05-05 02:03 | 24.56486 | 111.96108 | 32170 ft | 403 kts | 276° |
| 2026-05-05 02:03 | 24.57057 | 111.89972 | 32170 ft | 403 kts | 276° |
| 2026-05-05 02:04 | 24.57625 | 111.83871 | 32168 ft | 404 kts | 276° |
| 2026-05-05 02:04 | 24.58190 | 111.77756 | 32165 ft | 404 kts | 276° |
| 2026-05-05 02:05 | 24.58756 | 111.71609 | 32158 ft | 403 kts | 276° |
| 2026-05-05 02:05 | 24.59314 | 111.65520 | 32149 ft | 403 kts | 276° |
| 2026-05-05 02:06 | 24.59873 | 111.59376 | 32143 ft | 403 kts | 276° |
| 2026-05-05 02:06 | 24.60426 | 111.53300 | 32140 ft | 403 kts | 276° |
| 2026-05-05 02:07 | 24.60981 | 111.47165 | 32134 ft | 404 kts | 276° |
| 2026-05-05 02:07 | 24.61535 | 111.41020 | 32133 ft | 404 kts | 276° |
| 2026-05-05 02:08 | 24.62084 | 111.34897 | 32133 ft | 404 kts | 276° |
| 2026-05-05 02:08 | 24.62627 | 111.28758 | 32134 ft | 404 kts | 276° |
| 2026-05-05 02:09 | 24.63155 | 111.22641 | 32134 ft | 404 kts | 276° |
| 2026-05-05 02:09 | 24.63682 | 111.16501 | 32140 ft | 403 kts | 276° |
| 2026-05-05 02:10 | 24.64207 | 111.10394 | 32142 ft | 403 kts | 276° |
| 2026-05-05 02:10 | 24.64730 | 111.04280 | 32145 ft | 404 kts | 276° |
| 2026-05-05 02:11 | 24.65259 | 110.98126 | 32149 ft | 403 kts | 276° |
| 2026-05-05 02:11 | 24.65776 | 110.92008 | 32147 ft | 404 kts | 276° |
| 2026-05-05 02:12 | 24.67246 | 110.82964 | 32141 ft | 403 kts | 287° |
| 2026-05-05 02:13 | 24.69455 | 110.77298 | 32134 ft | 406 kts | 296° |
| 2026-05-05 02:13 | 24.72618 | 110.72147 | 32129 ft | 411 kts | 306° |
| 2026-05-05 02:14 | 24.76591 | 110.67597 | 32125 ft | 414 kts | 311° |
| 2026-05-05 02:14 | 24.80428 | 110.63532 | 32129 ft | 413 kts | 311° |